Terminal Aerodrome Forecast
Issued by NWS

Home | Current Version | Previous Version | Text Only | Print | Product List | Glossary On
Versions: 1 2 3 4 5 6 7 8 9 10 11 12 13 14 15 16 17 18 19 20 21 22 23 24 25
918
FTUS46 KOTX 290522
TAFCOE
TAF
KCOE 290522Z 2906/3006 12006KT P6SM SCT050 BKN100 BKN200
     FM291300 18007KT P6SM SCT050 BKN070 BKN150
     FM292000 23010G18KT P6SM VCSH SCT040 BKN060
     FM300300 20007KT P6SM SCT050 SCT200
      AMD LTD TO CLD AND VIS=

USA.gov is the U.S. government's official web portal to all federal, state and local government web resources and services.